Metar z połowy godziny Komunikat METAR ze strony awiacja.imgw.pl Metar G30 EPZG METAR EPZG 190230Z VRB01KT CAVOK 16/11 Q1020 =